Time;durP1;ratioP1;P1;durP2;ratioP2;P2;SDS_P1;SDS_P2;PMS_P1;PMS_P2;Temp;Humidity;BMP_temperature;BMP_pressure;BME280_temperature;BME280_humidity;BME280_pressure;Samples;Min_cycle;Max_cycle;Signal;HPM_P1;HPM_P2
2022/05/21 00:01:32;;;;;;;4.28;2.47;;;;;;;20.41;45.98;98623.69;1727595;82;21293;-73
2022/05/21 00:03:58;;;;;;;4.97;2.72;;;;;;;20.38;46.11;98617.97;1714858;83;21203;-71
2022/05/21 00:06:26;;;;;;;6.08;2.72;;;;;;;20.36;46.18;98614.18;1716394;83;20959;-70
2022/05/21 00:08:53;;;;;;;3.77;2.45;;;;;;;20.33;46.24;98613.86;1716683;83;20974;-70
2022/05/21 00:11:19;;;;;;;8.60;3.10;;;;;;;20.31;46.31;98604.64;1715331;83;21007;-72
2022/05/21 00:13:48;;;;;;;6.53;2.72;;;;;;;20.28;46.50;98608.67;1715438;83;20983;-69
2022/05/21 00:16:15;;;;;;;2.98;2.30;;;;;;;20.27;46.51;98610.28;1718254;83;21244;-68
2022/05/21 00:18:42;;;;;;;7.17;2.90;;;;;;;20.25;46.57;98617.30;1718415;83;21030;-69
2022/05/21 00:21:08;;;;;;;4.55;2.87;;;;;;;20.21;46.74;98621.53;1727580;82;21497;-68
2022/05/21 00:23:35;;;;;;;3.47;2.33;;;;;;;20.19;46.88;98625.02;1715624;83;21587;-69
2022/05/21 00:26:06;;;;;;;5.15;2.80;;;;;;;20.15;46.92;98613.64;1716571;83;20998;-69
2022/05/21 00:28:33;;;;;;;4.37;2.70;;;;;;;20.10;47.07;98614.93;1717931;83;21836;-68
2022/05/21 00:31:02;;;;;;;5.30;2.90;;;;;;;20.05;47.21;98622.41;1719418;83;20994;-69
2022/05/21 00:33:29;;;;;;;3.95;2.92;;;;;;;20.00;47.40;98626.92;1727016;83;20950;-70
2022/05/21 00:35:55;;;;;;;3.98;2.65;;;;;;;19.96;47.54;98625.81;1719470;83;21035;-68
2022/05/21 00:38:24;;;;;;;5.50;2.75;;;;;;;19.90;47.74;98627.63;1717210;83;21061;-69
2022/05/21 00:40:51;;;;;;;4.53;2.70;;;;;;;19.87;47.86;98627.30;1716814;83;21623;-69
2022/05/21 00:43:52;;;;;;;3.87;2.60;;;;;;;19.84;48.00;98613.77;1718102;83;20908;-69
2022/05/21 00:46:22;;;;;;;4.40;2.40;;;;;;;19.79;48.12;98607.52;1719783;81;20983;-68
2022/05/21 00:49:06;;;;;;;5.97;2.72;;;;;;;19.73;48.29;98609.86;1723676;83;21432;-68
2022/05/21 00:51:40;;;;;;;4.25;2.70;;;;;;;19.67;48.45;98597.66;1724253;83;20966;-68
2022/05/21 00:54:07;;;;;;;5.40;2.98;;;;;;;19.63;48.60;98599.20;1724342;83;21215;-70
2022/05/21 00:56:37;;;;;;;6.92;2.83;;;;;;;19.59;48.72;98606.17;1724439;83;21444;-70
2022/05/21 01:01:53;;;;;;;4.07;2.73;;;;;;;19.52;48.96;98607.42;1719807;83;20951;-68
2022/05/21 01:04:19;;;;;;;7.58;3.22;;;;;;;19.48;49.06;98597.65;1715678;83;20891;-70
2022/05/21 01:06:46;;;;;;;4.05;2.62;;;;;;;19.43;49.21;98596.23;1708577;83;21140;-69
2022/05/21 01:09:12;;;;;;;6.05;2.58;;;;;;;19.41;49.33;98590.80;1710173;83;21074;-68
2022/05/21 01:11:39;;;;;;;6.42;3.00;;;;;;;19.37;49.41;98581.03;1708278;83;20988;-72
2022/05/21 01:14:09;;;;;;;3.90;2.72;;;;;;;19.35;49.48;98581.78;1678804;84;21435;-71
2022/05/21 01:16:35;;;;;;;6.45;3.20;;;;;;;19.31;49.65;98569.88;1708440;83;20991;-68
2022/05/21 01:19:08;;;;;;;3.85;2.55;;;;;;;19.27;49.77;98574.12;1704948;83;21240;-70
2022/05/21 01:21:36;;;;;;;4.53;3.20;;;;;;;19.23;49.88;98568.13;1661610;85;20918;-69
2022/05/21 01:24:06;;;;;;;2.67;2.47;;;;;;;19.17;49.99;98560.48;1708808;83;20946;-70
2022/05/21 01:26:32;;;;;;;4.08;2.40;;;;;;;19.15;50.06;98554.53;1716413;83;21001;-71
2022/05/21 01:28:59;;;;;;;4.87;2.55;;;;;;;19.12;50.14;98542.89;1705919;83;21065;-69
2022/05/21 01:31:26;;;;;;;7.67;2.85;;;;;;;19.09;50.19;98549.59;1708308;83;21156;-69
2022/05/21 01:33:54;;;;;;;4.67;2.35;;;;;;;19.05;50.31;98547.13;1708355;83;21043;-68
2022/05/21 01:36:21;;;;;;;3.55;2.40;;;;;;;19.04;50.38;98540.09;1706115;83;21012;-69
2022/05/21 01:38:49;;;;;;;3.92;2.67;;;;;;;19.03;50.45;98547.88;1708292;83;20908;-68
2022/05/21 01:41:15;;;;;;;3.60;2.50;;;;;;;19.01;50.53;98543.80;1710488;83;20935;-71
2022/05/21 01:46:28;;;;;;;4.30;2.55;;;;;;;18.96;50.66;98542.38;1707647;83;20901;-69
2022/05/21 01:48:54;;;;;;;3.67;2.33;;;;;;;18.93;50.70;98538.30;1708331;83;20975;-69
2022/05/21 01:51:21;;;;;;;2.90;2.40;;;;;;;18.93;50.72;98536.13;1708277;83;20980;-69
2022/05/21 01:53:47;;;;;;;6.42;3.25;;;;;;;18.91;50.75;98530.17;1708419;83;20900;-69
2022/05/21 01:56:14;;;;;;;3.90;3.27;;;;;;;18.86;50.84;98522.84;1707628;83;22065;-69
2022/05/21 01:58:41;;;;;;;3.75;3.17;;;;;;;18.84;50.88;98523.63;1708284;83;20924;-69
2022/05/21 02:01:08;;;;;;;4.70;2.85;;;;;;;18.80;50.97;98519.77;1708405;83;20876;-71
2022/05/21 02:03:35;;;;;;;4.40;2.75;;;;;;;18.79;51.01;98511.95;1707650;83;21077;-67
2022/05/21 02:06:02;;;;;;;5.45;2.90;;;;;;;18.79;51.02;98510.08;1709466;83;20974;-70
2022/05/21 02:08:29;;;;;;;3.20;3.00;;;;;;;18.79;51.07;98515.46;1716659;83;22046;-68
2022/05/21 02:10:56;;;;;;;3.08;2.55;;;;;;;18.79;51.01;98515.98;1716390;83;20892;-72
2022/05/21 02:13:26;;;;;;;3.00;2.70;;;;;;;18.79;50.98;98528.94;1716422;83;20983;-69
2022/05/21 02:15:52;;;;;;;3.62;2.58;;;;;;;18.77;51.01;98535.08;1716969;83;21512;-71
2022/05/21 02:18:19;;;;;;;3.30;2.72;;;;;;;18.76;51.04;98525.38;1716512;83;20923;-73
2022/05/21 02:20:48;;;;;;;6.70;2.65;;;;;;;18.73;51.08;98529.91;1716433;83;22070;-69
2022/05/21 02:23:14;;;;;;;3.70;2.35;;;;;;;18.71;51.20;98533.38;1716444;83;20908;-69
2022/05/21 02:25:41;;;;;;;5.92;2.50;;;;;;;18.67;51.21;98532.74;1713638;83;21006;-70
2022/05/21 02:28:08;;;;;;;5.10;2.55;;;;;;;18.63;51.30;98533.78;1716489;83;20904;-68
2022/05/21 02:30:34;;;;;;;3.67;2.40;;;;;;;18.59;51.39;98526.45;1716488;83;21523;-71
2022/05/21 02:33:02;;;;;;;4.75;2.62;;;;;;;18.55;51.48;98522.59;1716789;83;21243;-70
2022/05/21 02:35:28;;;;;;;3.65;2.80;;;;;;;18.49;51.59;98521.69;1715722;83;21413;-69
2022/05/21 02:40:40;;;;;;;7.58;2.58;;;;;;;18.43;51.72;98504.59;1713718;83;21532;-70
2022/05/21 02:43:06;;;;;;;5.20;2.70;;;;;;;18.40;51.79;98502.94;1727735;83;20998;-69
2022/05/21 02:45:33;;;;;;;3.77;2.90;;;;;;;18.36;51.84;98492.34;1718133;83;21156;-69
2022/05/21 02:48:00;;;;;;;4.67;2.60;;;;;;;18.36;51.79;98488.31;1717209;83;20970;-72
2022/05/21 02:50:34;;;;;;;5.17;2.75;;;;;;;18.33;51.80;98492.30;1716605;83;20928;-71
2022/05/21 02:53:05;;;;;;;5.45;3.00;;;;;;;18.33;51.77;98482.06;1716684;83;21034;-69
2022/05/21 02:55:33;;;;;;;3.65;2.90;;;;;;;18.31;51.75;98473.42;1715634;83;21025;-69
2022/05/21 02:58:00;;;;;;;3.45;2.30;;;;;;;18.31;51.75;98470.20;1719321;83;21829;-68
2022/05/21 03:00:30;;;;;;;5.62;2.40;;;;;;;18.30;51.73;98453.75;1719407;83;20982;-67
2022/05/21 03:02:58;;;;;;;5.20;2.67;;;;;;;18.31;51.67;98454.05;1719591;83;20989;-68
2022/05/21 03:05:26;;;;;;;4.78;2.40;;;;;;;18.35;51.64;98458.42;1718754;83;21188;-69
2022/05/21 03:07:53;;;;;;;2.58;2.10;;;;;;;18.39;51.62;98461.72;1716678;83;21034;-69
2022/05/21 03:10:22;;;;;;;4.45;2.62;;;;;;;18.45;51.50;98459.94;1716648;83;21145;-72
2022/05/21 03:12:55;;;;;;;4.97;2.02;;;;;;;18.52;51.35;98459.26;1716790;83;20970;-70
2022/05/21 03:15:29;;;;;;;3.60;2.50;;;;;;;18.61;51.17;98455.63;1716662;83;21541;-68
2022/05/21 03:17:55;;;;;;;5.22;2.42;;;;;;;18.70;51.00;98453.61;1717146;83;20931;-71
2022/05/21 03:20:22;;;;;;;2.65;2.42;;;;;;;18.80;50.73;98451.59;1719487;83;21015;-68
2022/05/21 03:22:49;;;;;;;3.12;2.30;;;;;;;18.86;50.51;98447.91;1719484;83;21298;-68
2022/05/21 03:25:15;;;;;;;6.80;2.58;;;;;;;18.92;50.29;98445.59;1718137;83;21013;-69
2022/05/21 03:27:43;;;;;;;4.10;2.37;;;;;;;18.96;50.10;98436.75;1716727;83;21532;-71
2022/05/21 03:30:14;;;;;;;3.45;2.47;;;;;;;18.99;50.05;98429.52;1716386;83;20976;-70
2022/05/21 03:32:41;;;;;;;3.10;2.37;;;;;;;19.05;49.92;98423.66;1716796;83;21082;-67
2022/05/21 03:35:08;;;;;;;4.05;2.40;;;;;;;19.11;49.74;98423.47;1707662;83;22144;-68
2022/05/21 03:37:36;;;;;;;2.80;2.47;;;;;;;19.15;49.62;98422.97;1715227;83;20899;-71
2022/05/21 03:40:07;;;;;;;5.85;2.37;;;;;;;19.18;49.52;98421.95;1716584;83;21472;-70
2022/05/21 03:42:35;;;;;;;3.80;2.60;;;;;;;19.24;49.38;98418.23;1716666;83;21022;-69
2022/05/21 03:45:01;;;;;;;5.03;2.72;;;;;;;19.31;49.24;98418.05;1716628;83;21163;-70
2022/05/21 03:47:27;;;;;;;4.08;2.67;;;;;;;19.39;49.10;98410.91;1716909;83;22033;-72
2022/05/21 03:49:55;;;;;;;4.28;2.75;;;;;;;19.47;48.85;98407.23;1716756;83;20995;-71
2022/05/21 03:52:21;;;;;;;2.92;2.60;;;;;;;19.55;48.67;98407.31;1716476;83;20872;-70
2022/05/21 03:54:48;;;;;;;4.72;2.72;;;;;;;19.61;48.54;98407.63;1716817;83;20908;-71
2022/05/21 03:57:15;;;;;;;5.35;2.33;;;;;;;19.65;48.41;98397.98;1717096;83;21007;-68
2022/05/21 03:59:42;;;;;;;3.22;2.33;;;;;;;19.69;48.31;98401.25;1716553;83;21155;-70
2022/05/21 04:02:10;;;;;;;5.50;2.70;;;;;;;19.70;48.36;98402.89;1716510;83;21410;-72
2022/05/21 04:04:37;;;;;;;3.45;2.42;;;;;;;19.71;48.33;98391.02;1716252;83;20944;-69
2022/05/21 04:07:05;;;;;;;9.10;2.70;;;;;;;19.71;48.38;98386.97;1710973;83;21505;-69
2022/05/21 04:09:32;;;;;;;2.90;2.55;;;;;;;19.73;48.30;98384.03;1707771;83;21086;-68
2022/05/21 04:12:00;;;;;;;4.40;2.65;;;;;;;19.72;48.27;98374.30;1708332;83;21152;-71
2022/05/21 04:14:27;;;;;;;6.35;2.80;;;;;;;19.73;48.28;98373.23;1708351;83;20995;-70
2022/05/21 04:16:57;;;;;;;4.62;3.00;;;;;;;19.77;48.29;98382.97;1708059;83;20919;-68
2022/05/21 04:19:23;;;;;;;3.22;2.58;;;;;;;19.80;48.23;98373.02;1708307;83;20983;-68
2022/05/21 04:21:50;;;;;;;2.95;2.62;;;;;;;19.85;48.19;98364.44;1708348;83;20943;-68
2022/05/21 04:24:17;;;;;;;3.85;2.58;;;;;;;19.89;48.12;98366.09;1708362;83;21140;-71
2022/05/21 04:26:44;;;;;;;7.58;3.12;;;;;;;19.92;47.98;98359.63;1710707;83;20947;-69
2022/05/21 04:29:11;;;;;;;3.02;2.72;;;;;;;19.96;48.00;98357.23;1719863;82;21500;-69
2022/05/21 04:31:37;;;;;;;3.98;2.95;;;;;;;20.01;47.92;98356.75;1711584;83;20956;-68
2022/05/21 04:34:05;;;;;;;5.62;2.80;;;;;;;20.07;47.75;98358.43;1711437;83;21572;-67
2022/05/21 04:36:33;;;;;;;4.83;3.10;;;;;;;20.05;47.73;98356.50;1709544;83;21489;-70
2022/05/21 04:39:00;;;;;;;4.37;2.40;;;;;;;20.04;47.81;98353.55;1708345;83;21054;-69
2022/05/21 04:41:27;;;;;;;3.85;2.22;;;;;;;20.07;47.76;98351.68;1708320;83;20947;-68
2022/05/21 04:43:54;;;;;;;7.33;2.87;;;;;;;20.09;47.72;98341.96;1708278;83;20944;-68
2022/05/21 04:46:21;;;;;;;3.30;2.52;;;;;;;20.08;47.79;98337.63;1707997;83;21462;-69
2022/05/21 04:48:49;;;;;;;4.80;2.67;;;;;;;20.08;48.08;98343.02;1708309;83;21253;-68
2022/05/21 04:51:16;;;;;;;4.90;2.58;;;;;;;20.10;47.96;98339.55;1708362;83;20956;-69
2022/05/21 04:53:42;;;;;;;3.77;2.33;;;;;;;20.09;47.90;98330.63;1708412;83;20896;-68
2022/05/21 04:56:09;;;;;;;5.75;2.50;;;;;;;20.09;47.82;98335.21;1709599;83;21099;-68
2022/05/21 04:58:36;;;;;;;2.62;2.40;;;;;;;20.08;47.82;98334.92;1709686;83;21092;-71
2022/05/21 05:01:03;;;;;;;3.27;2.65;;;;;;;20.06;47.93;98328.45;1710827;83;21158;-67
2022/05/21 05:03:30;;;;;;;6.75;2.50;;;;;;;20.04;47.82;98327.08;1707920;83;21014;-70
2022/05/21 05:05:56;;;;;;;2.95;2.15;;;;;;;20.01;47.78;98323.54;1709800;83;20955;-70
2022/05/21 05:08:23;;;;;;;3.33;2.45;;;;;;;20.01;47.79;98316.79;1720764;83;20987;-69
2022/05/21 05:10:50;;;;;;;3.20;2.00;;;;;;;19.99;47.61;98305.45;1718691;83;20951;-71
2022/05/21 05:13:17;;;;;;;5.70;2.42;;;;;;;19.96;47.44;98297.33;1719623;83;21170;-70
2022/05/21 05:15:44;;;;;;;4.40;2.17;;;;;;;19.94;47.28;98295.44;1688326;83;21029;-69
2022/05/21 05:18:14;;;;;;;3.70;2.60;;;;;;;19.94;47.13;98293.27;1719616;83;20875;-71
2022/05/21 05:20:41;;;;;;;2.90;2.58;;;;;;;19.93;47.07;98307.29;1718532;83;20971;-68
2022/05/21 05:23:08;;;;;;;5.10;2.72;;;;;;;19.95;47.11;98312.41;1719677;83;20900;-68
2022/05/21 05:25:35;;;;;;;6.50;2.40;;;;;;;19.96;47.11;98314.05;1719708;83;21481;-67
2022/05/21 05:28:02;;;;;;;5.08;2.30;;;;;;;19.98;47.23;98313.25;1720630;83;20983;-68
2022/05/21 05:30:29;;;;;;;4.17;2.60;;;;;;;20.00;47.26;98315.97;1721083;82;21049;-67
2022/05/21 05:32:55;;;;;;;4.87;2.47;;;;;;;19.99;47.15;98317.59;1720918;83;21051;-68
2022/05/21 05:35:22;;;;;;;7.45;2.62;;;;;;;19.98;47.09;98311.91;1720027;83;20931;-72
2022/05/21 05:37:48;;;;;;;3.17;2.58;;;;;;;19.98;47.19;98305.98;1725076;83;21168;-70
2022/05/21 05:40:19;;;;;;;8.50;2.62;;;;;;;20.01;47.17;98299.25;1726771;81;20967;-69
2022/05/21 05:42:48;;;;;;;5.12;2.60;;;;;;;20.03;47.17;98293.86;1717852;83;20958;-68
2022/05/21 05:45:15;;;;;;;8.55;2.60;;;;;;;20.06;47.13;98289.30;1722201;83;20990;-67
2022/05/21 05:47:42;;;;;;;5.03;2.90;;;;;;;20.09;47.00;98292.02;1719827;83;21052;-69
2022/05/21 05:50:10;;;;;;;6.95;2.87;;;;;;;20.13;47.40;98305.27;1701439;84;21226;-68
2022/05/21 05:52:36;;;;;;;4.58;2.70;;;;;;;20.18;47.83;98307.46;1701622;84;20987;-67
2022/05/21 05:55:03;;;;;;;3.25;2.87;;;;;;;20.20;48.89;98293.72;1701996;84;20999;-67
2022/05/21 05:57:30;;;;;;;7.12;2.80;;;;;;;20.26;49.96;98280.53;1723284;83;21542;-66
2022/05/21 05:59:56;;;;;;;5.28;2.50;;;;;;;20.27;50.09;98288.39;1715899;83;21516;-70
2022/05/21 06:05:15;;;;;;;3.55;2.40;;;;;;;20.25;50.37;98271.65;1719376;83;20931;-71
2022/05/21 06:07:48;;;;;;;6.28;2.70;;;;;;;20.16;50.49;98244.81;1729725;82;21080;-73
2022/05/21 06:10:18;;;;;;;3.37;2.40;;;;;;;20.16;50.45;98237.25;1730954;82;20903;-70
2022/05/21 06:12:47;;;;;;;4.83;2.58;;;;;;;20.24;50.37;98234.91;1732150;82;21027;-70
2022/05/21 06:15:13;;;;;;;4.00;2.12;;;;;;;20.33;50.21;98235.77;1731025;82;21288;-70
2022/05/21 06:17:41;;;;;;;3.83;2.30;;;;;;;20.37;50.21;98237.66;1728875;82;20963;-68
2022/05/21 06:20:14;;;;;;;3.47;2.50;;;;;;;20.38;50.52;98247.94;1728332;82;20926;-71
2022/05/21 06:22:42;;;;;;;5.20;2.95;;;;;;;20.36;50.54;98238.77;1734033;81;20923;-71
2022/05/21 06:25:09;;;;;;;3.33;2.70;;;;;;;20.35;50.64;98226.85;1734182;81;20991;-71
2022/05/21 06:27:36;;;;;;;2.80;2.45;;;;;;;20.29;50.88;98226.02;1730752;82;21249;-70
2022/05/21 06:30:04;;;;;;;4.37;2.15;;;;;;;20.24;50.89;98219.23;1732242;82;20966;-72
2022/05/21 06:32:31;;;;;;;2.50;2.20;;;;;;;20.20;51.22;98211.37;1731503;82;20914;-70
2022/05/21 06:34:58;;;;;;;6.55;3.12;;;;;;;20.20;51.48;98207.31;1729547;82;21117;-71
2022/05/21 06:37:24;;;;;;;3.30;3.00;;;;;;;20.31;51.54;98206.30;1729549;82;21074;-72
2022/05/21 06:39:50;;;;;;;2.75;2.55;;;;;;;20.52;51.50;98203.96;1729554;82;21174;-71
2022/05/21 06:42:18;;;;;;;4.33;2.77;;;;;;;20.83;51.08;98194.09;1729753;82;21119;-70
2022/05/21 06:44:45;;;;;;;3.58;2.80;;;;;;;21.07;50.69;98193.05;1729431;82;20954;-71
2022/05/21 06:47:12;;;;;;;6.85;3.45;;;;;;;21.23;50.43;98198.22;1729551;82;21586;-72
2022/05/21 06:49:39;;;;;;;4.97;2.90;;;;;;;21.39;50.13;98180.92;1731551;82;21563;-72
2022/05/21 06:52:06;;;;;;;2.60;2.40;;;;;;;21.47;49.80;98186.33;1733503;81;21531;-72
2022/05/21 06:54:34;;;;;;;4.08;2.60;;;;;;;21.50;49.87;98168.20;1732670;82;20995;-72
2022/05/21 06:57:00;;;;;;;4.33;3.05;;;;;;;21.59;49.74;98170.61;1732578;82;21025;-71
2022/05/21 06:59:27;;;;;;;2.72;2.52;;;;;;;21.72;49.71;98159.23;1733118;81;20986;-70
2022/05/21 07:01:54;;;;;;;4.72;2.60;;;;;;;21.99;49.23;98151.63;1732547;82;20950;-74
2022/05/21 07:07:32;;;;;;;3.58;2.70;;;;;;;22.30;47.86;98144.73;1734371;82;21115;-72
2022/05/21 07:07:32;;;;;;;3.30;3.00;;;;;;;22.30;47.86;98144.73;1727259;82;21501;-73
2022/05/21 07:09:21;;;;;;;5.65;2.70;;;;;;;22.38;48.01;98131.97;1689403;82;21098;-71
2022/05/21 07:11:50;;;;;;;4.50;3.10;;;;;;;22.57;47.65;98132.97;1732070;82;21576;-71
2022/05/21 07:14:19;;;;;;;4.78;3.15;;;;;;;22.65;47.75;98127.81;1710431;82;20928;-71
2022/05/21 07:16:48;;;;;;;4.00;2.77;;;;;;;22.74;47.37;98114.45;1716619;83;21271;-73
2022/05/21 07:19:15;;;;;;;4.00;2.45;;;;;;;22.88;46.87;98107.86;1710330;83;21004;-70
2022/05/21 07:21:42;;;;;;;6.17;2.80;;;;;;;22.99;46.62;98106.16;1706804;83;21029;-71
2022/05/21 07:24:10;;;;;;;6.85;2.62;;;;;;;23.22;46.14;98108.13;1708229;83;21454;-67
2022/05/21 07:26:37;;;;;;;3.10;2.77;;;;;;;23.45;45.67;98093.56;1712221;83;20948;-67
2022/05/21 07:29:04;;;;;;;4.15;2.70;;;;;;;23.79;45.00;98103.80;1726018;82;21540;-68
2022/05/21 07:31:32;;;;;;;3.77;2.47;;;;;;;24.18;43.89;98099.02;1711605;83;20963;-70
2022/05/21 07:33:59;;;;;;;4.33;2.52;;;;;;;24.71;43.01;98098.30;1711550;83;20896;-70
2022/05/21 07:36:25;;;;;;;2.75;2.52;;;;;;;25.05;42.42;98094.00;1711620;83;20959;-69
2022/05/21 07:38:52;;;;;;;3.00;2.80;;;;;;;25.39;41.60;98079.55;1711665;83;20991;-70
2022/05/21 07:41:19;;;;;;;5.33;3.05;;;;;;;25.89;40.97;98077.79;1708168;83;21212;-68
2022/05/21 07:43:46;;;;;;;4.33;2.50;;;;;;;26.38;40.47;98078.45;1719185;83;20994;-72
2022/05/21 07:46:12;;;;;;;5.30;2.52;;;;;;;27.27;38.41;98064.91;1719529;82;21643;-71
2022/05/21 07:48:39;;;;;;;14.23;2.70;;;;;;;27.93;37.10;98048.36;1709055;83;20912;-67
2022/05/21 07:51:06;;;;;;;3.60;2.00;;;;;;;28.17;36.68;98038.41;1709835;83;20935;-70
2022/05/21 07:53:36;;;;;;;4.87;2.40;;;;;;;29.07;35.40;98036.10;1711733;83;21427;-68
2022/05/21 07:56:03;;;;;;;4.15;2.20;;;;;;;30.00;34.11;98040.84;1711595;83;21109;-67
2022/05/21 07:58:33;;;;;;;2.90;1.87;;;;;;;30.20;33.46;98024.98;1719687;83;21516;-63
2022/05/21 08:01:00;;;;;;;3.05;2.02;;;;;;;30.23;32.69;98018.84;1709343;83;21058;-69
2022/05/21 08:03:29;;;;;;;2.22;1.70;;;;;;;29.88;33.08;98025.09;1702557;83;21026;-71
2022/05/21 08:05:56;;;;;;;3.60;2.00;;;;;;;29.89;33.14;98017.11;1709963;83;21103;-72
2022/05/21 08:08:24;;;;;;;4.12;2.00;;;;;;;29.80;33.23;98002.08;1709591;83;20995;-71
2022/05/21 08:10:51;;;;;;;9.70;2.50;;;;;;;29.98;33.47;97997.32;1711522;83;20998;-71
2022/05/21 08:13:18;;;;;;;5.45;1.98;;;;;;;30.31;32.92;97998.22;1715052;83;21449;-69
2022/05/21 08:15:44;;;;;;;9.30;1.85;;;;;;;30.85;31.99;98000.45;1716801;83;20985;-73
2022/05/21 08:18:11;;;;;;;12.40;2.17;;;;;;;31.20;31.43;97998.19;1716672;82;21193;-72
2022/05/21 08:20:38;;;;;;;4.72;1.80;;;;;;;31.18;30.86;97995.55;1708523;83;21449;-72
2022/05/21 08:28:36;;;;;;;;;;;;;;;29.15;33.87;97991.48;1713431;83;20995;-69
2022/05/21 08:31:03;;;;;;;5.60;2.42;;;;;;;28.71;35.29;97992.69;1711674;83;21216;-70
2022/05/21 08:33:31;;;;;;;4.60;1.72;;;;;;;28.44;35.90;97992.20;1706349;83;21564;-73
2022/05/21 08:35:58;;;;;;;8.55;1.57;;;;;;;28.10;36.51;97984.22;1697828;83;20990;-71
2022/05/21 08:38:26;;;;;;;11.83;2.22;;;;;;;27.90;37.39;97974.39;1702086;83;20979;-70
2022/05/21 08:40:59;;;;;;;10.43;2.35;;;;;;;27.53;38.04;97992.15;1708316;83;21461;-69
2022/05/21 08:44:05;;;;;;;14.28;2.27;;;;;;;27.26;38.79;98000.50;1711356;83;21209;-69
2022/05/21 08:46:42;;;;;;;12.85;1.60;;;;;;;27.01;39.42;97995.13;1711572;83;20991;-71
2022/05/21 08:49:33;;;;;;;10.53;2.08;;;;;;;26.82;40.51;98002.73;1720796;82;20967;-69
2022/05/21 08:52:15;;;;;;;12.15;2.00;;;;;;;26.75;40.92;98018.70;1719940;83;21006;-71
2022/05/21 08:54:44;;;;;;;12.85;2.40;;;;;;;26.80;41.21;98021.33;1711514;83;20892;-69
2022/05/21 08:57:30;;;;;;;8.70;2.10;;;;;;;26.95;41.23;98032.68;1711622;83;21088;-68
2022/05/21 09:00:09;;;;;;;4.95;1.80;;;;;;;26.89;41.82;98028.45;1712421;83;21524;-70
2022/05/21 09:02:35;;;;;;;7.87;1.90;;;;;;;26.86;41.92;98035.89;1711706;83;21130;-70
2022/05/21 09:05:09;;;;;;;4.22;2.05;;;;;;;26.89;41.87;98042.09;1719722;82;20999;-71
2022/05/21 09:08:06;;;;;;;7.15;2.67;;;;;;;26.92;42.26;98029.20;1713256;83;20985;-72
2022/05/21 09:11:06;;;;;;;5.20;2.10;;;;;;;26.90;42.41;98048.37;1728221;81;20895;-74
2022/05/21 09:13:47;;;;;;;11.80;2.00;;;;;;;26.91;42.58;98054.86;1726587;82;21056;-70
2022/05/21 09:19:08;;;;;;;3.72;1.67;;;;;;;28.97;39.70;98026.86;1714023;83;20970;-70
2022/05/21 09:21:39;;;;;;;6.72;2.00;;;;;;;28.39;40.12;98036.92;1727845;83;21054;-72
2022/05/21 09:24:08;;;;;;;9.70;1.67;;;;;;;28.26;40.19;98034.33;1689548;83;21157;-69
2022/05/21 09:26:49;;;;;;;9.58;1.40;;;;;;;27.99;40.07;98031.26;1716527;83;20975;-71
2022/05/21 09:29:26;;;;;;;6.85;1.98;;;;;;;27.63;40.40;98028.73;1716493;83;20971;-71
2022/05/21 09:31:57;;;;;;;4.03;3.12;;;;;;;27.30;41.13;98036.41;1716476;83;21537;-70
2022/05/21 09:34:31;;;;;;;3.45;1.57;;;;;;;27.31;41.46;98041.31;1716544;83;21122;-71
2022/05/21 09:37:00;;;;;;;9.80;1.70;;;;;;;27.24;41.84;98039.59;1701841;83;39514;-70
2022/05/21 09:39:39;;;;;;;3.83;1.52;;;;;;;27.05;42.25;98040.34;1716485;83;20995;-71
2022/05/21 09:47:31;;;;;;;5.28;1.40;;;;;;;26.64;43.91;98039.14;1719508;83;21042;-71
2022/05/21 09:50:07;;;;;;;3.15;2.22;;;;;;;26.62;44.15;98047.62;1719438;83;21151;-72
2022/05/21 09:52:35;;;;;;;6.75;1.82;;;;;;;26.84;44.19;98035.95;1719527;83;20991;-71
2022/05/21 09:55:04;;;;;;;4.67;2.47;;;;;;;27.36;43.34;98037.08;1727557;82;20994;-71
2022/05/21 09:57:39;;;;;;;8.03;2.30;;;;;;;27.35;43.23;98040.36;1717224;83;20986;-69
2022/05/21 10:00:33;;;;;;;6.85;2.05;;;;;;;27.37;43.24;98037.34;1716632;83;21031;-69
2022/05/21 10:03:01;;;;;;;8.40;1.95;;;;;;;27.83;42.45;98040.45;1716377;83;21279;-70
2022/05/21 10:05:39;;;;;;;8.60;1.80;;;;;;;28.11;41.88;98033.64;1710004;83;20932;-69
2022/05/21 10:11:26;;;;;;;6.65;1.37;;;;;;;28.57;40.76;98033.08;1719543;83;21441;-71
2022/05/21 10:13:58;;;;;;;9.00;1.65;;;;;;;28.86;40.00;98024.25;1719424;83;20975;-70
2022/05/21 10:16:55;;;;;;;4.67;1.40;;;;;;;29.09;39.84;98032.50;1728243;81;21773;-69
2022/05/21 10:19:34;;;;;;;;;;;;;;;29.26;39.54;98031.67;1729961;82;21401;-70
2022/05/21 10:22:43;;;;;;;12.58;2.10;;;;;;;29.36;39.00;98045.01;1719459;83;20125;-71
2022/05/21 10:25:21;;;;;;;10.13;1.65;;;;;;;29.40;38.67;98045.98;1716440;83;20948;-70
2022/05/21 10:28:14;;;;;;;7.10;1.87;;;;;;;29.30;38.63;98041.66;1712359;83;21073;-70
2022/05/21 10:31:09;;;;;;;10.13;2.10;;;;;;;29.18;38.67;98012.73;1727392;83;21144;-71
2022/05/21 10:33:56;;;;;;;3.55;1.90;;;;;;;28.94;39.16;98043.15;1719162;83;20939;-70
2022/05/21 10:36:46;;;;;;;10.45;2.08;;;;;;;28.82;39.43;98045.16;1727511;83;20888;-71
2022/05/21 10:39:40;;;;;;;5.37;2.10;;;;;;;28.84;39.48;98055.21;1718943;83;20901;-70
2022/05/21 10:42:24;;;;;;;12.60;2.35;;;;;;;28.86;39.79;98059.82;1727417;81;21472;-72
2022/05/21 10:45:33;;;;;;;8.80;2.23;;;;;;;29.04;39.72;98052.39;1727809;82;21512;-69
2022/05/21 10:48:12;;;;;;;6.92;2.35;;;;;;;29.25;39.29;98054.72;1719071;83;20951;-69
2022/05/21 10:50:58;;;;;;;10.10;2.85;;;;;;;29.32;39.15;98050.91;1719074;83;20955;-73
2022/05/21 10:53:45;;;;;;;12.43;2.30;;;;;;;29.45;38.82;98060.87;1728125;81;20947;-70
2022/05/21 10:56:37;;;;;;;11.33;2.45;;;;;;;29.47;38.62;98057.23;1727479;83;20992;-68
2022/05/21 10:59:38;;;;;;;9.88;2.55;;;;;;;29.60;38.35;98052.11;1719535;83;21795;-70
2022/05/21 11:02:31;;;;;;;10.55;2.77;;;;;;;29.61;37.65;98046.07;1719781;83;20911;-70
2022/05/21 11:05:48;;;;;;;7.53;2.22;;;;;;;29.59;37.50;98053.23;1727671;81;21061;-71
2022/05/21 11:08:44;;;;;;;7.60;2.45;;;;;;;29.57;37.39;98068.39;1727814;82;21041;-70
2022/05/21 11:11:57;;;;;;;3.90;2.45;;;;;;;29.33;37.12;98065.64;1719740;83;21004;-73
2022/05/21 11:15:01;;;;;;;6.78;2.60;;;;;;;29.12;36.91;98063.89;1719561;83;21977;-71
2022/05/21 11:17:42;;;;;;;8.48;2.62;;;;;;;28.91;37.31;98073.90;1728086;81;20946;-74
2022/05/21 11:20:25;;;;;;;4.53;2.17;;;;;;;28.90;37.83;98061.33;1727683;82;20891;-73
2022/05/21 11:23:27;;;;;;;5.92;2.62;;;;;;;28.90;37.86;98062.14;1719446;83;20919;-71
2022/05/21 11:26:00;;;;;;;7.05;2.30;;;;;;;28.94;37.62;98049.41;1727654;83;21073;-72
2022/05/21 11:28:47;;;;;;;6.58;2.42;;;;;;;28.90;36.68;98053.93;1710718;83;21151;-72
2022/05/21 11:39:44;;;;;;;4.90;2.20;;;;;;;28.30;37.07;98067.54;1719410;83;20943;-72
2022/05/21 11:42:14;;;;;;;4.80;1.95;;;;;;;28.24;37.32;98065.26;1719491;83;21309;-70
2022/05/21 11:44:56;;;;;;;6.55;2.52;;;;;;;28.26;37.39;98067.95;1727453;82;20887;-71
2022/05/21 11:47:35;;;;;;;5.95;2.55;;;;;;;28.24;37.74;98061.97;1719677;83;21031;-67
2022/05/21 11:50:27;;;;;;;7.45;2.40;;;;;;;28.22;38.22;98057.95;1716907;83;21003;-72
2022/05/21 11:53:04;;;;;;;5.50;2.52;;;;;;;28.22;38.15;98047.01;1727645;83;21030;-74
2022/05/21 11:55:32;;;;;;;6.35;2.37;;;;;;;28.21;37.76;98046.20;1698737;83;21888;-72
2022/05/21 11:58:02;;;;;;;3.90;1.90;;;;;;;28.12;37.79;98046.20;1678152;83;20903;-71
2022/05/21 12:00:43;;;;;;;3.50;1.98;;;;;;;28.12;37.55;98042.66;1727532;82;20897;-74
2022/05/21 12:03:13;;;;;;;6.50;2.00;;;;;;;28.18;37.23;98057.21;1719660;83;20911;-74
2022/05/21 12:05:53;;;;;;;9.95;2.30;;;;;;;28.22;36.80;98059.31;1727555;83;20934;-71
2022/05/21 12:08:34;;;;;;;6.72;2.08;;;;;;;28.21;36.89;98070.80;1719489;83;21149;-69
2022/05/21 12:11:36;;;;;;;3.50;2.45;;;;;;;28.11;37.25;98083.41;1727569;82;20879;-73
2022/05/21 12:14:14;;;;;;;7.47;2.35;;;;;;;28.02;37.76;98090.79;1719640;83;21006;-73
2022/05/21 12:16:50;;;;;;;5.17;2.30;;;;;;;27.81;38.52;98080.95;1727538;83;20899;-73
2022/05/21 12:19:54;;;;;;;7.47;2.72;;;;;;;27.71;38.79;98094.90;1719435;83;21391;-71
2022/05/21 12:22:45;;;;;;;17.17;3.33;;;;;;;27.64;38.92;98083.59;1719397;83;21946;-71
2022/05/21 12:25:25;;;;;;;13.32;2.65;;;;;;;27.50;38.26;98072.78;1727489;82;20879;-74
2022/05/21 12:27:56;;;;;;;23.18;3.70;;;;;;;27.40;37.57;98091.36;1659118;83;22370;-75
2022/05/21 12:30:26;;;;;;;22.95;3.67;;;;;;;27.32;37.31;98094.23;1716475;83;21654;-72
2022/05/21 12:32:53;;;;;;;18.15;2.55;;;;;;;27.30;35.90;98097.02;1716601;83;21037;-73